SBOSBO SPU / LDSP
Speedbird OnlineSpeedbird Online SPU / LDSP

Split Airport
22:09 19°C

Location Split, Croatia
Latitude: 43.53889846801758
Longitude: 16.29800033569336
Web Wikipedia
Altitude 24 Meter / 79 Feet
Distance 1,498 KM / 931 Miles
from London.
Time Zone UTC +2 hours (Europe/Zagreb)
Codes IATA: SPU
ICAO: LDSP
Currency £1 equals HRK 8.42
Runways
RunwayLength (m)Surface
052550Asphalt
232550Asphalt
Radio
TypeDescriptionFrequency
APPAPP120.875
INFOINFO128.675
TWRTWR124.675
Live ATC
METAR LDSP 242000Z 12006KT CAVOK 19/09 Q1018 NOSIG
TAF TAF LDSP 241725Z 2418/2518 11008KT CAVOK TX21/2510Z TN17/2501Z TEMPO 2502/2518 RA PROB40 TEMPO 2510/2514 23008KT 3000 TSRA BKN014 FEW025CB
Weather As Of 24 Sep 2022 22:09
Description Clear sky
Wind 11 km/h from South-East (120°)
Cloud Cover 0%
Precipitation Rain: none, Snow: none
Sunrise 06:43
Sunset 18:49
Lounges Business Lounge , Main Terminal
Rotations During the last 90 days there were
110 flights from LHR
28 flights from LCY
111 flights to LHR
27 flights to LCY
1 flights to STN


© 2017-2022 Speedbird Online